Time;durP1;ratioP1;P1;durP2;ratioP2;P2;SDS_P1;SDS_P2;PMS_P1;PMS_P2;Temp;Humidity;BMP_temperature;BMP_pressure;BME280_temperature;BME280_humidity;BME280_pressure;Samples;Min_cycle;Max_cycle;Signal;HPM_P1;HPM_P2
2022/10/29 00:00:08;;;;;;;0.00;0.00;;;18.30;94.70;;;;;;4017908;29;20474;-62
2022/10/29 00:02:49;;;;;;;0.00;0.00;;;18.30;94.70;;;;;;4018039;29;20051;-63
2022/10/29 00:05:30;;;;;;;0.43;0.43;;;18.30;94.70;;;;;;4017394;29;20081;-63
2022/10/29 00:08:11;;;;;;;0.00;0.00;;;18.30;94.70;;;;;;4017030;29;20056;-63
2022/10/29 00:10:52;;;;;;;4.88;2.05;;;18.30;94.70;;;;;;4016657;29;20064;-63
2022/10/29 00:13:33;;;;;;;0.05;0.05;;;18.30;94.80;;;;;;3998414;29;20061;-63
2022/10/29 00:16:17;;;;;;;0.00;0.00;;;18.30;94.80;;;;;;4017352;29;20105;-62
2022/10/29 00:18:58;;;;;;;0.00;0.00;;;18.20;94.70;;;;;;4016886;29;20065;-62
2022/10/29 00:21:39;;;;;;;0.00;0.00;;;18.20;94.80;;;;;;4017307;29;20057;-62
2022/10/29 00:24:20;;;;;;;0.00;0.00;;;18.20;94.80;;;;;;4006201;29;20052;-62
2022/10/29 00:27:01;;;;;;;8.07;1.15;;;18.20;94.80;;;;;;4002457;29;20509;-62
2022/10/29 00:29:42;;;;;;;0.45;0.45;;;18.20;94.80;;;;;;4001968;29;20130;-62
2022/10/29 00:32:24;;;;;;;0.25;0.25;;;18.20;94.80;;;;;;4001594;29;20698;-62
2022/10/29 00:35:06;;;;;;;0.00;0.00;;;18.20;94.80;;;;;;4007844;29;20081;-62
2022/10/29 00:37:46;;;;;;;0.00;0.00;;;18.20;94.80;;;;;;4017334;29;20512;-62
2022/10/29 00:40:27;;;;;;;0.00;0.00;;;18.20;94.80;;;;;;4017502;29;20060;-63
2022/10/29 00:43:15;;;;;;;0.00;0.00;;;18.20;94.80;;;;;;4017273;29;20052;-62
2022/10/29 00:45:59;;;;;;;0.00;0.00;;;18.20;94.80;;;;;;4016631;29;20619;-62
2022/10/29 00:48:45;;;;;;;0.30;0.30;;;18.20;94.90;;;;;;4001472;29;20057;-62
2022/10/29 00:51:28;;;;;;;0.00;0.00;;;18.20;94.90;;;;;;4011502;29;20145;-62
2022/10/29 00:54:11;;;;;;;2.50;1.67;;;18.20;94.90;;;;;;4016716;29;20056;-62
2022/10/29 00:56:57;;;;;;;0.43;0.43;;;18.20;94.90;;;;;;4016666;29;20616;-62
2022/10/29 00:59:38;;;;;;;2.90;0.73;;;18.20;94.90;;;;;;4016583;29;20060;-62
2022/10/29 01:02:21;;;;;;;0.05;0.05;;;18.20;94.90;;;;;;4016781;29;20105;-62
2022/10/29 01:05:05;;;;;;;0.00;0.00;;;18.20;94.90;;;;;;4016361;29;20064;-63
2022/10/29 01:07:46;;;;;;;0.00;0.00;;;18.20;94.90;;;;;;4016107;29;20402;-62
2022/10/29 01:10:31;;;;;;;;;;;18.10;94.90;;;;;;4017274;29;20186;-62
2022/10/29 01:13:24;;;;;;;0.00;0.00;;;18.10;94.90;;;;;;4016628;29;19931;-62
2022/10/29 01:16:15;;;;;;;0.00;0.00;;;18.20;94.90;;;;;;4005120;29;20124;-63
2022/10/29 01:19:08;;;;;;;0.00;0.00;;;18.10;94.90;;;;;;4016833;29;20065;-63
2022/10/29 01:21:53;;;;;;;0.00;0.00;;;18.10;94.90;;;;;;4016133;29;20501;-63
2022/10/29 01:25:06;;;;;;;0.00;0.00;;;18.10;94.90;;;;;;4016399;29;20056;-62
2022/10/29 01:28:05;;;;;;;0.00;0.00;;;18.10;95.00;;;;;;4016280;29;20060;-63
2022/10/29 01:31:00;;;;;;;0.00;0.00;;;18.10;95.00;;;;;;4016162;29;20056;-62
2022/10/29 01:33:49;;;;;;;0.65;0.65;;;18.10;95.00;;;;;;4015837;29;20057;-63
2022/10/29 01:36:37;;;;;;;0.00;0.00;;;18.10;95.00;;;;;;4001211;29;20057;-63
2022/10/29 01:39:22;;;;;;;0.00;0.00;;;18.10;95.10;;;;;;4007696;29;20127;-63
2022/10/29 01:42:09;;;;;;;0.10;0.10;;;18.10;95.00;;;;;;4016443;29;20053;-63
2022/10/29 01:44:56;;;;;;;0.17;0.17;;;18.10;95.10;;;;;;4015762;29;20064;-63
2022/10/29 01:47:42;;;;;;;0.00;0.00;;;18.10;95.10;;;;;;4005391;29;20060;-63
2022/10/29 01:50:24;;;;;;;0.28;0.28;;;18.10;95.10;;;;;;4016194;29;20854;-63
2022/10/29 01:53:06;;;;;;;0.00;0.00;;;18.00;95.10;;;;;;4016299;29;20596;-62
2022/10/29 01:55:47;;;;;;;0.00;0.00;;;18.10;95.10;;;;;;4016051;29;20064;-62
2022/10/29 01:58:28;;;;;;;0.22;0.22;;;18.10;95.10;;;;;;4016083;29;20057;-63
2022/10/29 02:01:18;;;;;;;0.00;0.00;;;18.10;95.10;;;;;;4012936;29;20059;-63
2022/10/29 02:04:17;;;;;;;0.00;0.00;;;18.10;95.10;;;;;;4016159;29;20052;-62
2022/10/29 02:07:07;;;;;;;0.43;0.43;;;18.10;95.10;;;;;;4015850;29;20611;-62
2022/10/29 02:09:56;;;;;;;0.00;0.00;;;18.10;95.20;;;;;;4016520;29;20056;-62
2022/10/29 02:12:41;;;;;;;1.05;1.05;;;18.10;95.20;;;;;;4000817;29;20052;-63
2022/10/29 02:15:27;;;;;;;0.00;0.00;;;18.00;95.10;;;;;;4016771;29;20417;-62
2022/10/29 02:18:08;;;;;;;0.00;0.00;;;18.00;95.20;;;;;;4016579;29;20064;-63
2022/10/29 02:20:50;;;;;;;0.00;0.00;;;18.00;95.10;;;;;;4000925;29;20061;-63
2022/10/29 02:23:31;;;;;;;0.35;0.35;;;18.00;95.20;;;;;;3999456;29;20073;-63
2022/10/29 02:26:13;;;;;;;0.38;0.38;;;18.00;95.20;;;;;;4001670;29;20057;-62
2022/10/29 02:28:54;;;;;;;0.00;0.00;;;18.00;95.20;;;;;;4016703;29;20051;-62
2022/10/29 02:31:35;;;;;;;0.00;0.00;;;18.00;95.20;;;;;;4015600;29;20165;-62
2022/10/29 02:34:16;;;;;;;0.00;0.00;;;18.00;95.20;;;;;;4012758;29;20136;-62
2022/10/29 02:36:58;;;;;;;0.00;0.00;;;18.00;95.20;;;;;;4002362;29;20110;-62
2022/10/29 02:39:39;;;;;;;0.00;0.00;;;18.00;95.20;;;;;;4016156;29;20068;-62
2022/10/29 02:42:20;;;;;;;2.20;1.98;;;18.00;95.20;;;;;;4015912;29;20421;-68
2022/10/29 02:45:01;;;;;;;0.00;0.00;;;18.00;95.30;;;;;;4016335;29;20076;-69
2022/10/29 02:47:42;;;;;;;0.00;0.00;;;18.00;95.60;;;;;;4001180;29;20060;-64
2022/10/29 02:50:22;;;;;;;0.05;0.05;;;18.00;95.30;;;;;;4000377;29;20118;-63
2022/10/29 02:53:05;;;;;;;0.00;0.00;;;18.00;95.30;;;;;;4003307;29;20102;-63
2022/10/29 02:55:46;;;;;;;0.00;0.00;;;18.00;95.30;;;;;;4001134;29;20061;-63
2022/10/29 02:58:27;;;;;;;3.53;1.38;;;18.00;95.30;;;;;;4001079;29;20061;-63
2022/10/29 03:01:07;;;;;;;6.18;0.95;;;17.90;95.30;;;;;;4014843;29;20064;-63
2022/10/29 03:03:49;;;;;;;0.00;0.00;;;17.90;95.30;;;;;;4016459;29;20198;-63
2022/10/29 03:06:29;;;;;;;0.08;0.08;;;17.90;95.30;;;;;;4016604;29;20410;-63
2022/10/29 03:09:12;;;;;;;0.00;0.00;;;17.90;95.30;;;;;;4016277;29;20060;-62
2022/10/29 03:11:53;;;;;;;0.00;0.00;;;17.90;95.30;;;;;;4009515;29;20207;-62
2022/10/29 03:14:33;;;;;;;0.20;0.20;;;17.90;95.30;;;;;;4005277;29;20061;-62
2022/10/29 03:17:14;;;;;;;0.00;0.00;;;17.90;95.30;;;;;;4019344;29;20064;-63
2022/10/29 03:19:56;;;;;;;0.00;0.00;;;17.90;95.30;;;;;;4017490;29;20116;-62
2022/10/29 03:22:36;;;;;;;0.00;0.00;;;17.90;95.40;;;;;;4018884;29;20068;-63
2022/10/29 03:25:18;;;;;;;0.00;0.00;;;17.90;95.40;;;;;;4018395;29;20060;-62
2022/10/29 03:27:59;;;;;;;0.15;0.15;;;17.90;95.40;;;;;;4003306;29;20090;-62
2022/10/29 03:30:40;;;;;;;0.00;0.00;;;17.90;95.40;;;;;;4018400;29;20057;-62
2022/10/29 03:33:21;;;;;;;0.00;0.00;;;17.90;95.40;;;;;;4005103;29;20199;-62
2022/10/29 03:36:05;;;;;;;0.40;0.40;;;17.90;95.40;;;;;;4019101;29;20484;-63
2022/10/29 03:38:46;;;;;;;0.20;0.20;;;17.90;95.40;;;;;;4004926;29;20211;-62
2022/10/29 03:41:28;;;;;;;0.35;0.35;;;17.90;95.40;;;;;;4018297;29;20125;-63
2022/10/29 03:44:09;;;;;;;0.45;0.45;;;17.90;95.40;;;;;;4019003;29;20132;-62
2022/10/29 03:46:50;;;;;;;0.00;0.00;;;17.90;95.40;;;;;;4018545;29;20125;-63
2022/10/29 03:49:31;;;;;;;0.00;0.00;;;17.90;95.40;;;;;;4018385;29;20055;-63
2022/10/29 03:52:12;;;;;;;0.32;0.32;;;17.90;95.40;;;;;;4010811;29;20047;-62
2022/10/29 03:54:53;;;;;;;0.00;0.00;;;17.90;95.50;;;;;;4005611;29;20053;-63
2022/10/29 03:57:36;;;;;;;0.00;0.00;;;17.90;95.40;;;;;;4007000;29;20061;-62
2022/10/29 04:00:17;;;;;;;0.30;0.25;;;17.90;95.50;;;;;;4018466;29;20513;-62
2022/10/29 04:02:58;;;;;;;0.00;0.00;;;17.80;95.40;;;;;;4018650;29;20105;-63
2022/10/29 04:05:39;;;;;;;0.00;0.00;;;17.90;95.50;;;;;;4018331;29;20422;-62
2022/10/29 04:08:20;;;;;;;0.00;0.00;;;17.90;95.50;;;;;;4018176;29;20064;-62
2022/10/29 04:11:01;;;;;;;0.10;0.10;;;17.90;95.50;;;;;;4017507;29;20064;-62
2022/10/29 04:13:44;;;;;;;0.08;0.08;;;17.80;95.50;;;;;;4017722;29;20060;-63
2022/10/29 04:16:24;;;;;;;0.00;0.00;;;17.80;95.50;;;;;;3991385;29;20056;-63
2022/10/29 04:19:05;;;;;;;0.20;0.20;;;17.80;95.50;;;;;;4003053;29;20095;-63
2022/10/29 04:21:46;;;;;;;0.00;0.00;;;17.80;95.50;;;;;;4016881;29;20289;-63
2022/10/29 04:24:46;;;;;;;0.08;0.08;;;17.80;95.50;;;;;;4017034;29;20190;-63
2022/10/29 04:27:47;;;;;;;0.00;0.00;;;17.90;95.50;;;;;;4017195;29;20125;-62
2022/10/29 04:30:50;;;;;;;0.00;0.00;;;17.80;95.50;;;;;;4017001;29;20072;-63
2022/10/29 04:33:30;;;;;;;0.00;0.00;;;17.80;95.50;;;;;;4017065;29;20078;-63
2022/10/29 04:36:12;;;;;;;0.40;0.40;;;17.80;95.50;;;;;;4001906;29;20075;-63
2022/10/29 04:38:53;;;;;;;0.00;0.00;;;17.80;95.50;;;;;;4001582;29;20061;-63
2022/10/29 04:41:34;;;;;;;0.00;0.00;;;17.80;95.60;;;;;;4006128;29;20056;-63
2022/10/29 04:44:14;;;;;;;0.00;0.00;;;17.80;95.60;;;;;;4016816;29;20164;-63
2022/10/29 04:46:57;;;;;;;0.22;0.22;;;17.80;95.60;;;;;;4017098;29;20056;-62
2022/10/29 04:49:37;;;;;;;0.00;0.00;;;17.80;95.60;;;;;;4016958;29;20064;-62
2022/10/29 04:52:18;;;;;;;0.00;0.00;;;17.80;95.60;;;;;;4017136;29;20065;-62
2022/10/29 04:54:59;;;;;;;0.00;0.00;;;17.80;95.60;;;;;;4016966;29;20072;-62
2022/10/29 04:57:40;;;;;;;0.00;0.00;;;17.80;95.60;;;;;;4005551;29;20414;-62
2022/10/29 05:00:21;;;;;;;0.00;0.00;;;17.80;95.60;;;;;;4016972;29;20191;-63
2022/10/29 05:03:03;;;;;;;0.00;0.00;;;17.80;95.60;;;;;;4016694;29;20056;-63
2022/10/29 05:05:44;;;;;;;0.47;0.47;;;17.80;95.60;;;;;;4016966;29;20064;-62
2022/10/29 05:08:25;;;;;;;0.00;0.00;;;17.80;95.60;;;;;;4016796;29;20056;-63
2022/10/29 05:11:07;;;;;;;0.00;0.00;;;17.80;95.60;;;;;;4016581;29;20051;-62
2022/10/29 05:13:47;;;;;;;0.00;0.00;;;17.80;95.60;;;;;;4016416;29;20068;-62
2022/10/29 05:16:28;;;;;;;0.00;0.00;;;17.80;95.60;;;;;;4016385;29;20056;-62
2022/10/29 05:19:11;;;;;;;0.17;0.17;;;17.80;95.60;;;;;;4016533;29;20166;-62
2022/10/29 05:21:51;;;;;;;0.00;0.00;;;17.80;95.60;;;;;;4016545;29;20618;-63
2022/10/29 05:24:32;;;;;;;0.00;0.00;;;17.80;95.60;;;;;;4016342;29;20072;-63
2022/10/29 05:27:13;;;;;;;0.00;0.00;;;17.80;95.60;;;;;;4016777;29;20178;-63
2022/10/29 05:29:54;;;;;;;0.00;0.00;;;17.80;95.70;;;;;;4016587;29;20060;-63
2022/10/29 05:32:35;;;;;;;0.00;0.00;;;17.80;95.70;;;;;;4002454;29;20501;-63
2022/10/29 05:35:22;;;;;;;0.20;0.20;;;17.80;95.70;;;;;;4016517;29;20194;-63
2022/10/29 05:38:03;;;;;;;0.00;0.00;;;17.80;95.70;;;;;;4016929;29;20061;-62
2022/10/29 05:40:44;;;;;;;0.00;0.00;;;17.80;95.80;;;;;;4003997;29;20061;-62
2022/10/29 05:43:25;;;;;;;0.00;0.00;;;17.80;96.00;;;;;;4005521;29;20056;-62
2022/10/29 05:46:06;;;;;;;1.55;1.45;;;17.80;96.00;;;;;;4016506;29;20076;-62
2022/10/29 05:48:46;;;;;;;0.00;0.00;;;17.80;96.30;;;;;;4016289;29;20542;-62
2022/10/29 05:51:29;;;;;;;0.00;0.00;;;17.90;96.30;;;;;;4015924;29;20060;-62
2022/10/29 05:54:10;;;;;;;0.00;0.00;;;17.80;96.20;;;;;;4015340;29;20052;-61
2022/10/29 05:56:51;;;;;;;0.75;0.75;;;17.90;96.20;;;;;;4016101;29;20060;-62
2022/10/29 05:59:32;;;;;;;0.08;0.08;;;17.90;96.20;;;;;;4016028;29;20068;-61
2022/10/29 06:02:13;;;;;;;0.20;0.20;;;17.90;96.10;;;;;;4015908;29;20075;-62
2022/10/29 06:04:55;;;;;;;;;;;17.90;96.10;;;;;;4016663;29;20059;-62
2022/10/29 06:07:37;;;;;;;0.47;0.47;;;17.90;96.00;;;;;;4015723;29;19931;-61
2022/10/29 06:10:18;;;;;;;0.00;0.00;;;17.90;96.00;;;;;;4015043;29;20129;-61
2022/10/29 06:12:59;;;;;;;0.35;0.35;;;17.90;96.00;;;;;;4015746;29;20074;-62
2022/10/29 06:15:40;;;;;;;0.20;0.20;;;17.80;95.90;;;;;;4015513;29;20084;-62
2022/10/29 06:18:21;;;;;;;;;;;17.80;95.90;;;;;;4016236;29;20504;-62
2022/10/29 06:21:02;;;;;;;0.00;0.00;;;17.80;95.90;;;;;;4010091;29;19980;-62
2022/10/29 06:23:44;;;;;;;0.00;0.00;;;17.80;95.90;;;;;;4003864;29;20262;-62
2022/10/29 06:26:24;;;;;;;0.00;0.00;;;17.80;95.90;;;;;;4015994;29;20121;-61
2022/10/29 06:29:06;;;;;;;0.00;0.00;;;17.80;95.90;;;;;;4015930;29;20049;-62
2022/10/29 06:31:47;;;;;;;0.00;0.00;;;17.80;95.90;;;;;;4015964;29;20071;-61
2022/10/29 06:34:28;;;;;;;0.00;0.00;;;17.80;95.90;;;;;;4015734;29;20060;-61
2022/10/29 06:37:09;;;;;;;0.13;0.13;;;17.80;95.90;;;;;;4014337;29;20060;-61
2022/10/29 06:39:51;;;;;;;0.00;0.00;;;17.80;95.90;;;;;;4015652;29;20120;-61
2022/10/29 06:42:32;;;;;;;0.20;0.20;;;17.80;95.90;;;;;;3990422;29;20101;-60
2022/10/29 06:45:13;;;;;;;0.00;0.00;;;17.80;95.90;;;;;;4013842;29;20048;-60
2022/10/29 06:47:54;;;;;;;0.00;0.00;;;17.80;95.90;;;;;;4017419;29;20738;-60
2022/10/29 06:50:35;;;;;;;0.00;0.00;;;17.80;95.80;;;;;;4007186;29;20140;-61
2022/10/29 06:53:17;;;;;;;0.00;0.00;;;17.80;95.80;;;;;;4017379;29;20137;-60
2022/10/29 06:56:00;;;;;;;0.00;0.00;;;17.80;95.80;;;;;;4018801;29;20056;-61
2022/10/29 06:58:41;;;;;;;0.00;0.00;;;17.80;95.80;;;;;;4018919;29;20056;-61
2022/10/29 07:01:22;;;;;;;0.00;0.00;;;17.80;95.80;;;;;;4018351;29;20068;-61
2022/10/29 07:04:05;;;;;;;0.43;0.43;;;17.80;95.80;;;;;;4018213;29;20139;-61
2022/10/29 07:06:45;;;;;;;0.00;0.00;;;17.80;95.70;;;;;;4018256;29;20076;-61
2022/10/29 07:09:26;;;;;;;0.55;0.55;;;17.80;95.80;;;;;;4018199;29;20064;-59
2022/10/29 07:12:10;;;;;;;0.00;0.00;;;17.80;96.10;;;;;;4018191;29;20218;-60
2022/10/29 07:14:51;;;;;;;0.00;0.00;;;17.80;95.70;;;;;;4018071;29;20156;-60
2022/10/29 07:17:32;;;;;;;0.80;0.80;;;17.80;95.70;;;;;;4018352;29;20065;-61
2022/10/29 07:20:13;;;;;;;0.00;0.00;;;17.80;95.70;;;;;;4010311;29;20557;-60
2022/10/29 07:22:54;;;;;;;0.00;0.00;;;17.80;95.70;;;;;;4013244;29;20075;-60
2022/10/29 07:25:36;;;;;;;0.00;0.00;;;17.80;95.70;;;;;;4018503;29;20076;-60
2022/10/29 07:28:21;;;;;;;0.00;0.00;;;17.80;95.70;;;;;;4018305;29;20044;-60
2022/10/29 07:31:02;;;;;;;0.00;0.00;;;17.80;95.70;;;;;;4017438;29;20413;-60
2022/10/29 07:33:43;;;;;;;0.00;0.00;;;17.80;95.70;;;;;;4018125;29;20454;-60
2022/10/29 07:36:24;;;;;;;0.00;0.00;;;17.70;95.70;;;;;;4017988;29;20060;-61
2022/10/29 07:39:06;;;;;;;0.03;0.03;;;17.80;95.70;;;;;;4017731;29;20056;-61
2022/10/29 07:41:46;;;;;;;0.10;0.10;;;17.70;95.60;;;;;;4017123;29;20166;-62
2022/10/29 07:44:29;;;;;;;0.00;0.00;;;17.70;95.60;;;;;;4017840;29;20074;-62
2022/10/29 07:47:10;;;;;;;0.00;0.00;;;17.70;95.60;;;;;;4018131;29;20061;-62
2022/10/29 07:49:50;;;;;;;0.05;0.05;;;17.70;95.60;;;;;;4017870;29;20060;-62
2022/10/29 07:52:31;;;;;;;0.00;0.00;;;17.70;95.70;;;;;;4017471;29;20129;-62
2022/10/29 07:55:12;;;;;;;0.00;0.00;;;17.70;95.70;;;;;;3992275;29;20057;-62
2022/10/29 07:57:57;;;;;;;0.00;0.00;;;17.70;95.60;;;;;;4002438;29;20053;-62
2022/10/29 08:00:41;;;;;;;0.00;0.00;;;17.70;95.70;;;;;;4009189;29;20097;-67
2022/10/29 08:03:22;;;;;;;0.20;0.20;;;17.70;95.60;;;;;;4017332;29;20137;-65
2022/10/29 08:06:02;;;;;;;0.00;0.00;;;17.70;95.60;;;;;;4017268;29;20128;-63
2022/10/29 08:08:43;;;;;;;0.00;0.00;;;17.70;95.60;;;;;;4017230;29;20425;-61
2022/10/29 08:11:24;;;;;;;0.00;0.00;;;17.70;95.60;;;;;;4017291;29;20133;-62
2022/10/29 08:14:05;;;;;;;0.00;0.00;;;17.70;95.60;;;;;;4006428;29;20073;-63
2022/10/29 08:16:48;;;;;;;0.00;0.00;;;17.70;95.60;;;;;;4017770;29;20078;-63
2022/10/29 08:19:28;;;;;;;0.00;0.00;;;17.70;95.60;;;;;;4005802;29;20056;-63
2022/10/29 08:22:10;;;;;;;;;;;17.70;95.60;;;;;;4016273;29;20125;-63
2022/10/29 08:24:50;;;;;;;0.00;0.00;;;17.70;96.00;;;;;;4017270;29;20292;-62
2022/10/29 08:27:31;;;;;;;0.05;0.05;;;17.70;95.60;;;;;;4017589;29;20065;-61
2022/10/29 08:30:14;;;;;;;0.43;0.43;;;17.70;95.60;;;;;;4007343;29;20054;-62
2022/10/29 08:32:56;;;;;;;0.00;0.00;;;17.70;95.60;;;;;;4017561;29;20044;-62
2022/10/29 08:35:37;;;;;;;0.00;0.00;;;17.70;95.60;;;;;;4017029;29;20513;-62
2022/10/29 08:38:18;;;;;;;0.00;0.00;;;17.70;95.70;;;;;;4017255;29;20049;-60
2022/10/29 08:41:23;;;;;;;0.00;0.00;;;17.70;95.60;;;;;;4016335;29;20085;-61
2022/10/29 08:44:20;;;;;;;0.00;0.00;;;17.70;95.70;;;;;;4017269;29;20061;-61
2022/10/29 08:47:13;;;;;;;4.05;1.73;;;17.70;95.70;;;;;;4016509;29;20065;-61
2022/10/29 08:50:10;;;;;;;0.38;0.38;;;17.70;95.70;;;;;;4016937;29;20052;-61
2022/10/29 08:52:52;;;;;;;0.38;0.38;;;17.70;95.70;;;;;;3990199;29;20061;-61
2022/10/29 08:55:53;;;;;;;0.00;0.00;;;17.70;95.70;;;;;;4001657;29;20053;-61
2022/10/29 08:58:40;;;;;;;0.73;0.73;;;17.70;95.70;;;;;;4006314;29;20531;-61
2022/10/29 09:01:23;;;;;;;0.10;0.10;;;17.80;95.70;;;;;;4019207;29;20512;-61
2022/10/29 09:04:13;;;;;;;0.00;0.00;;;17.80;95.70;;;;;;4016678;29;20064;-61
2022/10/29 09:07:10;;;;;;;0.00;0.00;;;17.70;95.70;;;;;;4016721;29;20163;-61
2022/10/29 09:09:59;;;;;;;0.55;0.55;;;17.80;95.70;;;;;;4014907;29;20117;-61
2022/10/29 09:12:51;;;;;;;0.00;0.00;;;17.80;95.70;;;;;;3988374;29;20077;-60
2022/10/29 09:15:39;;;;;;;;;;;17.80;95.70;;;;;;3990950;29;20844;-62
2022/10/29 09:18:35;;;;;;;0.30;0.30;;;17.80;95.70;;;;;;3988622;29;19935;-60
2022/10/29 09:21:28;;;;;;;0.00;0.00;;;17.80;95.70;;;;;;4010305;29;20564;-60
2022/10/29 09:24:16;;;;;;;0.20;0.20;;;17.70;95.70;;;;;;4016869;29;20060;-60
2022/10/29 09:26:58;;;;;;;0.30;0.30;;;17.70;95.70;;;;;;4017324;29;20057;-60
2022/10/29 09:29:56;;;;;;;0.20;0.20;;;17.70;95.70;;;;;;4016550;29;20068;-60
2022/10/29 09:32:40;;;;;;;0.00;0.00;;;17.70;95.70;;;;;;4014707;29;20542;-60
2022/10/29 09:35:26;;;;;;;0.00;0.00;;;17.70;95.70;;;;;;4013826;29;20060;-60
2022/10/29 09:38:16;;;;;;;0.10;0.10;;;17.70;95.70;;;;;;4014867;29;20194;-60
2022/10/29 09:41:01;;;;;;;0.55;0.55;;;17.70;95.70;;;;;;4016687;29;20056;-60
2022/10/29 09:43:50;;;;;;;0.30;0.30;;;17.80;95.70;;;;;;4017180;29;20125;-60
2022/10/29 09:46:39;;;;;;;0.30;0.20;;;17.80;95.70;;;;;;4017263;29;20060;-60
2022/10/29 09:49:31;;;;;;;0.00;0.00;;;17.80;95.70;;;;;;4017209;29;20087;-60
2022/10/29 09:52:17;;;;;;;1.55;1.27;;;17.80;95.70;;;;;;4016512;29;20574;-60
2022/10/29 09:55:00;;;;;;;0.03;0.03;;;17.80;96.10;;;;;;4017293;29;20120;-60
2022/10/29 09:57:42;;;;;;;0.00;0.00;;;17.80;95.70;;;;;;4017172;29;20068;-60
2022/10/29 10:00:25;;;;;;;0.08;0.08;;;17.80;95.70;;;;;;4016732;29;20048;-60
2022/10/29 10:03:14;;;;;;;0.25;0.25;;;17.80;95.60;;;;;;4016762;29;20401;-61
2022/10/29 10:05:58;;;;;;;2.42;1.85;;;17.80;95.60;;;;;;4016077;29;20065;-62
2022/10/29 10:08:59;;;;;;;0.10;0.10;;;17.80;95.60;;;;;;4004702;29;20057;-61
2022/10/29 10:11:43;;;;;;;0.10;0.10;;;17.80;95.60;;;;;;4016439;29;20065;-61
2022/10/29 10:14:26;;;;;;;0.00;0.00;;;17.80;95.60;;;;;;4016461;29;20098;-61
2022/10/29 10:17:07;;;;;;;0.45;0.45;;;17.80;95.60;;;;;;4015475;29;20458;-62
2022/10/29 10:19:48;;;;;;;0.10;0.10;;;17.80;95.60;;;;;;4016404;29;20052;-60
2022/10/29 10:22:30;;;;;;;0.00;0.00;;;17.80;95.60;;;;;;4019793;29;20747;-61
2022/10/29 10:25:32;;;;;;;0.03;0.03;;;17.80;95.70;;;;;;4019566;29;20405;-62
2022/10/29 10:28:19;;;;;;;0.38;0.20;;;17.80;95.70;;;;;;4004108;29;20057;-61
2022/10/29 10:31:13;;;;;;;0.00;0.00;;;17.80;95.70;;;;;;4004380;29;20061;-62
2022/10/29 10:33:55;;;;;;;0.20;0.20;;;17.80;95.70;;;;;;4004229;29;20057;-61
2022/10/29 10:36:41;;;;;;;0.20;0.20;;;17.80;95.70;;;;;;4006770;29;20061;-63
2022/10/29 10:39:30;;;;;;;0.00;0.00;;;17.80;95.70;;;;;;4019392;29;20458;-63
2022/10/29 10:42:18;;;;;;;0.00;0.00;;;17.80;95.70;;;;;;4034201;29;20107;-63
2022/10/29 10:45:02;;;;;;;0.30;0.30;;;17.90;95.80;;;;;;4034622;29;20567;-61
2022/10/29 10:47:47;;;;;;;0.00;0.00;;;17.90;95.80;;;;;;4019127;29;20524;-61
2022/10/29 10:50:30;;;;;;;0.00;0.00;;;17.90;95.70;;;;;;4007091;29;20096;-61
2022/10/29 10:53:19;;;;;;;0.20;0.20;;;17.90;95.70;;;;;;4018889;29;20421;-61
2022/10/29 10:55:59;;;;;;;0.00;0.00;;;17.90;95.70;;;;;;4016800;29;20056;-61
2022/10/29 10:58:45;;;;;;;24.90;2.50;;;18.00;95.70;;;;;;4019224;29;20147;-61
2022/10/29 11:01:31;;;;;;;0.65;0.65;;;17.90;95.60;;;;;;4019526;29;20052;-61
2022/10/29 11:04:20;;;;;;;0.10;0.10;;;18.00;95.70;;;;;;4018478;29;20057;-61
2022/10/29 11:07:06;;;;;;;4.05;3.70;;;18.00;95.70;;;;;;4018939;29;20082;-61
2022/10/29 11:09:50;;;;;;;0.75;0.75;;;18.00;95.60;;;;;;4018555;29;20064;-61
2022/10/29 11:12:36;;;;;;;0.10;0.10;;;18.00;95.60;;;;;;4003498;29;20068;-61
2022/10/29 11:15:25;;;;;;;0.00;0.00;;;18.00;95.60;;;;;;4003463;29;20060;-61
2022/10/29 11:18:15;;;;;;;0.55;0.55;;;18.00;95.60;;;;;;4012246;29;20064;-61
2022/10/29 11:21:12;;;;;;;0.20;0.20;;;18.00;95.60;;;;;;4026307;29;20109;-61
2022/10/29 11:23:56;;;;;;;;;;;18.10;95.60;;;;;;4034550;29;20084;-61
2022/10/29 11:26:41;;;;;;;0.00;0.00;;;18.10;95.50;;;;;;4033972;29;20026;-61
2022/10/29 11:29:35;;;;;;;0.00;0.00;;;18.00;95.50;;;;;;4033576;29;20051;-61
2022/10/29 11:32:22;;;;;;;0.63;0.63;;;18.10;95.50;;;;;;4032534;29;20516;-61
2022/10/29 11:35:05;;;;;;;0.00;0.00;;;18.10;95.90;;;;;;4025091;29;20055;-61
2022/10/29 11:37:55;;;;;;;0.00;0.00;;;18.10;95.50;;;;;;4033167;29;20060;-61
2022/10/29 11:40:44;;;;;;;0.35;0.35;;;18.10;95.50;;;;;;4019665;29;20064;-61
2022/10/29 11:43:25;;;;;;;3.53;1.90;;;18.10;95.60;;;;;;4018301;29;20057;-60
2022/10/29 11:46:12;;;;;;;0.00;0.00;;;18.20;95.60;;;;;;4017022;29;20167;-61
2022/10/29 11:49:04;;;;;;;1.75;1.65;;;18.20;95.50;;;;;;4018005;29;20737;-61
2022/10/29 11:51:52;;;;;;;0.00;0.00;;;18.20;95.50;;;;;;4017852;29;20076;-61
2022/10/29 11:54:52;;;;;;;0.10;0.10;;;18.30;95.50;;;;;;4003020;29;20402;-61
2022/10/29 11:57:39;;;;;;;0.55;0.55;;;18.30;95.60;;;;;;4002843;29;20114;-61
2022/10/29 12:00:22;;;;;;;0.15;0.15;;;18.30;95.60;;;;;;4008702;29;20149;-61
2022/10/29 12:03:40;;;;;;;1.23;0.40;;;18.30;95.60;;;;;;4017081;29;20053;-61
2022/10/29 12:06:29;;;;;;;0.10;0.10;;;18.40;95.60;;;;;;4019239;29;20137;-61
2022/10/29 12:09:46;;;;;;;0.00;0.00;;;18.40;95.60;;;;;;4017786;29;20194;-60
2022/10/29 12:12:34;;;;;;;0.30;0.22;;;18.40;95.90;;;;;;4017722;29;20057;-61
2022/10/29 12:15:23;;;;;;;0.00;0.00;;;18.40;95.50;;;;;;4015573;29;20189;-62
2022/10/29 12:18:13;;;;;;;0.10;0.10;;;18.50;95.50;;;;;;4017801;29;20519;-62
2022/10/29 12:21:02;;;;;;;0.00;0.00;;;18.40;95.50;;;;;;4018097;29;20145;-62
2022/10/29 12:23:51;;;;;;;1.77;1.13;;;18.50;95.50;;;;;;4032993;29;20144;-62
2022/10/29 12:26:37;;;;;;;0.20;0.20;;;18.50;95.50;;;;;;4017196;29;20084;-62
2022/10/29 12:29:27;;;;;;;0.55;0.55;;;18.50;95.50;;;;;;4017125;29;20389;-62
2022/10/29 12:32:15;;;;;;;0.57;0.57;;;18.50;95.50;;;;;;4017778;29;20194;-62
2022/10/29 12:35:01;;;;;;;0.10;0.10;;;18.50;95.50;;;;;;4017965;29;20097;-61
2022/10/29 12:37:51;;;;;;;1.75;1.45;;;18.50;95.80;;;;;;4015778;29;20397;-61
2022/10/29 12:40:37;;;;;;;0.90;0.88;;;18.50;95.50;;;;;;4017890;29;20132;-62
2022/10/29 12:43:23;;;;;;;0.35;0.35;;;18.50;95.50;;;;;;4016941;29;20417;-61
2022/10/29 12:46:19;;;;;;;0.20;0.20;;;18.50;95.50;;;;;;4017822;29;20061;-62
2022/10/29 12:49:08;;;;;;;0.20;0.20;;;18.50;95.50;;;;;;4009738;29;20060;-62
2022/10/29 12:51:54;;;;;;;0.50;0.50;;;18.60;95.90;;;;;;4017116;29;20150;-61
2022/10/29 12:54:43;;;;;;;1.05;0.90;;;18.50;95.50;;;;;;4017299;29;20060;-62
2022/10/29 12:57:31;;;;;;;0.15;0.15;;;18.50;95.50;;;;;;4016493;29;20378;-62
2022/10/29 13:00:47;;;;;;;0.65;0.65;;;18.50;95.50;;;;;;4032186;29;20153;-62
2022/10/29 13:04:01;;;;;;;1.08;1.08;;;18.60;95.60;;;;;;3996354;29;20520;-62
2022/10/29 13:06:48;;;;;;;0.90;0.90;;;18.60;95.60;;;;;;4032263;29;20056;-62
2022/10/29 13:09:30;;;;;;;0.47;0.47;;;18.60;95.60;;;;;;4016669;29;20053;-62
2022/10/29 13:12:12;;;;;;;0.03;0.03;;;18.60;95.70;;;;;;4016454;29;20522;-65
2022/10/29 13:15:00;;;;;;;0.00;0.00;;;18.60;95.70;;;;;;4017813;29;20060;-64
2022/10/29 13:17:41;;;;;;;0.10;0.10;;;18.60;95.80;;;;;;4016919;29;20097;-66
2022/10/29 13:20:26;;;;;;;0.00;0.00;;;18.60;95.80;;;;;;4016896;29;20097;-63
2022/10/29 13:23:34;;;;;;;0.35;0.35;;;18.70;95.80;;;;;;4016285;29;20049;-63
2022/10/29 13:26:55;;;;;;;0.00;0.00;;;18.70;95.80;;;;;;4016788;29;20072;-62
2022/10/29 13:29:51;;;;;;;0.00;0.00;;;18.70;95.80;;;;;;4016830;29;20064;-62
2022/10/29 13:32:34;;;;;;;0.38;0.38;;;18.70;95.80;;;;;;4017057;29;20048;-62
2022/10/29 13:35:42;;;;;;;0.00;0.00;;;18.70;95.70;;;;;;4002087;29;20061;-63
2022/10/29 13:38:41;;;;;;;0.20;0.20;;;18.70;95.70;;;;;;4001845;29;20088;-62
2022/10/29 13:41:31;;;;;;;0.10;0.10;;;18.70;95.70;;;;;;4001775;29;20118;-62
2022/10/29 13:44:16;;;;;;;1.17;1.08;;;18.70;95.70;;;;;;4014350;29;20526;-62
2022/10/29 13:47:00;;;;;;;0.13;0.13;;;18.70;95.70;;;;;;4016563;29;20052;-62
2022/10/29 13:49:44;;;;;;;0.03;0.03;;;18.80;95.70;;;;;;4008047;29;20072;-62
2022/10/29 13:52:36;;;;;;;0.00;0.00;;;18.80;95.70;;;;;;4016725;29;20056;-62
2022/10/29 13:55:17;;;;;;;;;;;18.80;95.70;;;;;;4031298;29;20079;-62
2022/10/29 13:58:03;;;;;;;0.00;0.00;;;18.80;95.70;;;;;;4018961;29;19935;-61
2022/10/29 14:00:47;;;;;;;0.20;0.20;;;18.80;95.60;;;;;;4016404;29;20075;-62
2022/10/29 14:03:35;;;;;;;0.00;0.00;;;18.80;95.60;;;;;;4016346;29;20128;-62
2022/10/29 14:06:20;;;;;;;0.38;0.38;;;18.80;95.70;;;;;;4016516;29;20056;-62
2022/10/29 14:09:12;;;;;;;0.10;0.10;;;18.80;95.70;;;;;;4031670;29;20059;-62
2022/10/29 14:12:01;;;;;;;0.10;0.10;;;18.80;95.70;;;;;;4030555;29;20113;-62
2022/10/29 14:14:50;;;;;;;0.00;0.00;;;18.80;95.70;;;;;;4017440;29;20054;-61
2022/10/29 14:17:31;;;;;;;0.32;0.32;;;18.90;96.10;;;;;;4017784;29;20044;-62
2022/10/29 14:20:21;;;;;;;0.68;0.68;;;18.90;95.70;;;;;;4015897;29;20052;-62